AGROMETEOROLOŠKI PORTAL

vinorodna pokrajina

Temelj dobrega kmetovanja

Pregled podatkov za lokacijo MALKOVEC ARSO, meteorološka postaja 120

Pregled senzorjev na lokaciji

ID Ime Zadnja
vrednost
Datum in čas
meritve
(lokalni čas)
Tip
senzorja
6037 Zračni tlak (hPa) 980 hPa 6.10.2022 07:00 ARSO
2731 Sončno sevanje (W/m2) 0 W/m2 6.10.2022 07:00 ARSO
2744 Relativna zračna vlaga (2 m) (% RH) 93 % RH 6.10.2022 07:00 ARSO
2743 Temperatura (2 m) (°C) 10,2 °C 6.10.2022 07:00 ARSO
2748 Smer vetra (2 m) (°) 10 ° 6.10.2022 07:00 ARSO
2749 Hitrost vetra (2 m) (km/h) 5 km/h 6.10.2022 07:00 ARSO

Pregled podatkov zadnjih 24 ur

Zap.
št.
Datum in čas
(lokalni čas)
MALKOVEC ARSO
Zračni
tlak
Sončno
sevanje
Relativna
zračna
vlaga
(2
m)
Temperatura
(2
m)
Smer
vetra
(2
m)
Hitrost
vetra
(2
m)
1 6.10.2022 07:00 980,3 0 93 10,2 10 5
2 6.10.2022 06:30 980,1 0 93 11,5 284 6
3 6.10.2022 06:00 980 0 93 11,4 280 5
4 6.10.2022 05:30 979,9 0 93 11,8 287 5
5 6.10.2022 05:00 979,8 0 93 11,9 294 5
6 6.10.2022 04:30 979,8 0 92 12 303 5
7 6.10.2022 04:00 979,9 0 92 12,3 291 5
8 6.10.2022 03:30 979,9 0 91 12,4 296 7
9 6.10.2022 03:00 980 0 91 12,6 302 7
10 6.10.2022 02:30 980,1 0 89 12,9 325 5
11 6.10.2022 02:00 980,1 0 88 13,2 317 4
12 6.10.2022 01:30 980 0 86 13,6 310 4
13 6.10.2022 01:00 979,9 0 84 14,1 280 4
14 6.10.2022 00:30 979,8 0 83 14,3 268 6
15 6.10.2022 00:00 979,8 0 82 14,6 265 7
16 5.10.2022 23:30 979,9 0 80 14,8 261 8
17 5.10.2022 23:00 979,9 0 79 15,1 262 8
18 5.10.2022 22:30 979,9 0 78 15,4 254 8
19 5.10.2022 22:00 979,8 0 77 15,5 259 8
20 5.10.2022 21:30 979,6 0 76 15,9 255 6
21 5.10.2022 21:00 979,6 0 74 16,4 257 6
22 5.10.2022 20:30 979,5 0 72 16,8 253 6
23 5.10.2022 20:00 979,4 0 70 17,1 252 7
24 5.10.2022 19:30 979,4 0 70 17,5 244 7
25 5.10.2022 19:00 979,3 2 68 18 237 8
26 5.10.2022 18:30 979,1 21 68 18,5 231 8
27 5.10.2022 18:00 979,1 62 67 19,2 194 6
28 5.10.2022 17:30 979,1 146 64 20 174 9
29 5.10.2022 17:00 979,3 265 62 20,8 161 9
30 5.10.2022 16:30 979,5 325 61 21 180 8
31 5.10.2022 16:00 979,6 336 61 20,9 224 6
32 5.10.2022 15:30 979,7 449 60 21,1 228 7
33 5.10.2022 15:00 980 484 61 20,6 271 9
34 5.10.2022 14:30 980,2 604 61 20,6 264 10
35 5.10.2022 14:00 980,3 642 61 20 273 10
36 5.10.2022 13:30 980,6 661 62 19,4 255 9
37 5.10.2022 13:00 980,8 670 64 18,7 265 9
38 5.10.2022 12:30 980,9 662 65 18,5 243 9
39 5.10.2022 12:00 981,1 633 67 17,6 221 4
40 5.10.2022 11:30 981,1 602 72 16 244 5
41 5.10.2022 11:00 981,1 538 78 14,4 258 5
42 5.10.2022 10:30 981 496 81 13 340 2
43 5.10.2022 10:00 981 422 84 12 358 3
44 5.10.2022 09:30 980,9 342 89 11 286 2
45 5.10.2022 09:00 980,8 263 95 9,9 331 2
46 5.10.2022 08:30 980,6 114 96 8,2 332 3